首页
METAR-TAF:

METAR-TAF

机场 :

南特, 法国

纬度: 47-10N, 经度: 001-36W, 海拔: 27米

当前天气观测

该预报发布于20分钟前的08:30 UTC
风速6节,风向西南,在南转西南西之间变化
温度 9°C
湿度 81%
气压 1019 hPa
能见度10公里或以上

METAR: LFRS 170830Z AUTO 23006KT 200V260 9999 FEW034/// SCT100/// ///TCU 09/06 Q1019 TEMPO 23015G25KT 4000 SHRA

时间: 09:50 (08:50 UTC)

预报

该预报发布于3小时和50分钟前的05:00 UTC
预报有效从17日的 06点(UTC)到 18日的 12点(UTC)
风速10节,风向西南
能见度10公里或以上
散云层高于2000英尺
散云层高于4000英尺
几率 40% :
短暂存在
从 17日的 06点(UTC)到 17日的 18点(UTC)
风速15节,风向西南,有时为25节阵风
能見度: 4000
散云层高于2000英尺, 塔状积云.
阵雨
短暂存在
从 17日的 12点(UTC)到 17日的 18点(UTC)
风速18节,风向西转西南,有时为32节阵风

TAF: LFRS 170500Z 1706/1812 23010KT 9999 SCT020 SCT040 PROB40 TEMPO 1706/1718 23015G25KT 4000 SHRA SCT020TCU TEMPO 1712/1718 24018G32KT

超过4000个机场的气象观测和天气预报(METAR&TAF报告)。

可查询的气象台以黄色和红色小点在地图上表示。

将鼠标移到小点上方,可查看气象台名称。

然后点击查看天气观测和预报。

如需切换地图:点击带黑十字的绿色按钮放大地图;点击带横线的绿色按钮缩小地图;或者点击绿色箭头查看邻近地区的地图。


METAR-TAF: